createdAt,value
2022-11-12T00:00:25.823Z,9.80
2022-11-12T00:03:13.308Z,10.50
2022-11-12T00:05:58.225Z,10.68
2022-11-12T00:08:43.162Z,7.88
2022-11-12T00:11:28.327Z,8.98
2022-11-12T00:14:13.272Z,9.75
2022-11-12T00:16:58.216Z,9.77
2022-11-12T00:19:43.043Z,9.82
2022-11-12T00:22:28.122Z,9.25
2022-11-12T00:25:13.477Z,10.02
2022-11-12T00:28:05.067Z,10.60
2022-11-12T00:30:50.086Z,9.68
2022-11-12T00:33:34.963Z,12.35
2022-11-12T00:36:19.829Z,10.30
2022-11-12T00:39:04.786Z,9.55
2022-11-12T00:41:49.831Z,9.95
2022-11-12T00:44:34.950Z,9.13
2022-11-12T00:47:19.952Z,9.18
2022-11-12T00:50:05.259Z,11.88
2022-11-12T00:52:51.721Z,9.52
2022-11-12T00:55:36.836Z,11.32
2022-11-12T00:58:21.889Z,8.98
2022-11-12T01:01:08.129Z,8.80
2022-11-12T01:03:53.520Z,8.83
2022-11-12T01:06:39.565Z,9.52
2022-11-12T01:09:24.947Z,9.73
2022-11-12T01:12:09.822Z,11.43
2022-11-12T01:14:54.684Z,10.75
2022-11-12T01:17:39.669Z,9.50
2022-11-12T01:20:24.845Z,8.95
2022-11-12T01:23:09.589Z,8.50
2022-11-12T01:25:54.665Z,10.02
2022-11-12T01:28:39.923Z,12.10
2022-11-12T01:31:38.036Z,10.15
2022-11-12T01:34:22.711Z,10.07
2022-11-12T01:37:07.602Z,9.70
2022-11-12T01:39:52.685Z,10.10
2022-11-12T01:42:38.568Z,9.80
2022-11-12T01:45:23.680Z,10.25
2022-11-12T01:48:25.806Z,9.77
2022-11-12T01:51:11.678Z,9.93
2022-11-12T01:53:58.825Z,9.18
2022-11-12T01:56:44.161Z,11.07
2022-11-12T01:59:32.886Z,9.43
2022-11-12T02:02:18.230Z,10.57
2022-11-12T02:05:04.614Z,10.30
2022-11-12T02:07:50.648Z,9.70
2022-11-12T02:10:35.763Z,10.33
2022-11-12T02:13:39.426Z,9.70
2022-11-12T02:16:44.822Z,9.07
2022-11-12T02:19:29.975Z,8.73
2022-11-12T02:22:14.832Z,9.67
2022-11-12T02:24:59.695Z,9.55
2022-11-12T02:27:45.106Z,9.18
2022-11-12T02:30:35.023Z,10.85
2022-11-12T02:33:20.210Z,9.13
2022-11-12T02:36:05.186Z,9.02
2022-11-12T02:38:50.437Z,8.80
2022-11-12T02:41:35.407Z,9.63
2022-11-12T02:44:20.294Z,10.05
2022-11-12T02:47:05.283Z,10.38
2022-11-12T02:49:50.159Z,7.78
2022-11-12T02:52:35.173Z,8.57
2022-11-12T02:55:20.016Z,8.43
2022-11-12T02:58:04.838Z,7.97
2022-11-12T03:00:50.121Z,9.27
2022-11-12T03:03:35.040Z,10.95
2022-11-12T03:06:19.951Z,10.68
2022-11-12T03:09:04.872Z,10.13
2022-11-12T03:11:49.878Z,10.63
2022-11-12T03:14:34.701Z,9.05
2022-11-12T03:17:19.657Z,11.68
2022-11-12T03:20:04.799Z,8.25
2022-11-12T03:23:00.243Z,8.10
2022-11-12T03:25:45.046Z,16.58
2022-11-12T03:28:30.397Z,8.43
2022-11-12T03:31:15.250Z,9.13
2022-11-12T03:34:00.141Z,8.82
2022-11-12T03:36:44.999Z,8.48
2022-11-12T03:39:30.100Z,9.10
2022-11-12T03:42:14.907Z,8.10
2022-11-12T03:45:00.024Z,8.30
2022-11-12T03:47:45.890Z,8.07
2022-11-12T03:50:30.875Z,9.88
2022-11-12T03:53:16.045Z,7.90
2022-11-12T03:56:00.956Z,7.57
2022-11-12T03:58:45.796Z,7.95
2022-11-12T04:01:30.784Z,7.70
2022-11-12T04:04:15.661Z,8.77
2022-11-12T04:07:19.335Z,7.68
2022-11-12T04:10:04.632Z,7.80
2022-11-12T04:13:08.152Z,9.02
2022-11-12T04:16:19.600Z,9.05
2022-11-12T04:19:23.872Z,8.73
2022-11-12T04:22:10.593Z,7.03
2022-11-12T04:25:14.144Z,8.57
2022-11-12T04:27:59.410Z,7.40
2022-11-12T04:30:44.234Z,8.00
2022-11-12T04:33:29.030Z,8.45
2022-11-12T04:36:13.987Z,9.37
2022-11-12T04:38:58.792Z,7.13
2022-11-12T04:42:02.245Z,8.85
2022-11-12T04:45:04.649Z,9.17
2022-11-12T04:47:49.457Z,8.93
2022-11-12T04:50:34.474Z,7.68
2022-11-12T04:53:19.388Z,11.15
2022-11-12T04:56:04.402Z,10.30
2022-11-12T04:58:49.609Z,7.97
2022-11-12T05:01:34.485Z,7.85
2022-11-12T05:04:19.454Z,7.40
2022-11-12T05:07:04.322Z,7.72
2022-11-12T05:09:49.185Z,7.75
2022-11-12T05:12:34.183Z,7.90
2022-11-12T05:15:19.468Z,8.90
2022-11-12T05:18:04.269Z,7.67
2022-11-12T05:20:51.353Z,7.73
2022-11-12T05:23:36.309Z,8.02
2022-11-12T05:26:21.107Z,9.60
2022-11-12T05:29:08.762Z,8.80
2022-11-12T05:31:54.524Z,9.67
2022-11-12T05:34:39.324Z,9.85
2022-11-12T05:37:24.094Z,9.25
2022-11-12T05:40:09.284Z,10.13
2022-11-12T05:42:54.421Z,10.20
2022-11-12T05:45:42.144Z,9.63
2022-11-12T05:48:27.603Z,12.57
2022-11-12T05:51:14.345Z,11.73
2022-11-12T05:53:59.768Z,13.23
2022-11-12T05:56:44.960Z,13.60
2022-11-12T05:59:30.253Z,14.13
2022-11-12T06:02:15.055Z,11.70
2022-11-12T06:05:00.669Z,11.63
2022-11-12T06:07:45.462Z,14.83
2022-11-12T06:10:30.365Z,15.67
2022-11-12T06:13:15.477Z,13.10
2022-11-12T06:16:00.678Z,14.17
2022-11-12T06:18:45.503Z,15.43
2022-11-12T06:21:30.396Z,13.50
2022-11-12T06:24:15.932Z,13.33
2022-11-12T06:27:00.721Z,16.47
2022-11-12T06:29:45.717Z,12.93
2022-11-12T06:32:30.542Z,14.13
2022-11-12T06:35:16.001Z,12.37
2022-11-12T06:38:00.592Z,12.17
2022-11-12T06:40:45.634Z,12.80
2022-11-12T06:43:31.719Z,13.87
2022-11-12T06:46:17.274Z,11.20
2022-11-12T06:49:02.326Z,11.70
2022-11-12T06:51:49.865Z,13.53
2022-11-12T06:54:34.708Z,13.83
2022-11-12T06:57:20.456Z,10.97
2022-11-12T07:00:07.046Z,11.70
2022-11-12T07:02:52.220Z,14.03
2022-11-12T07:05:38.244Z,11.73
2022-11-12T07:08:23.698Z,12.40
2022-11-12T07:11:09.195Z,14.97
2022-11-12T07:13:54.111Z,11.20
2022-11-12T07:16:39.046Z,11.77
2022-11-12T07:19:24.055Z,11.27
2022-11-12T07:22:08.911Z,13.13
2022-11-12T07:24:53.914Z,11.77
2022-11-12T07:27:38.911Z,12.40
2022-11-12T07:30:24.104Z,11.37
2022-11-12T07:33:09.290Z,20.97
2022-11-12T07:36:00.613Z,13.43
2022-11-12T07:38:46.050Z,12.60
2022-11-12T07:41:31.080Z,16.33
2022-11-12T07:44:15.970Z,16.60
2022-11-12T07:47:00.820Z,13.37
2022-11-12T07:49:45.987Z,16.77
2022-11-12T07:52:32.201Z,16.80
2022-11-12T07:55:16.976Z,17.33
2022-11-12T07:58:01.959Z,15.43
2022-11-12T08:00:46.737Z,16.17
2022-11-12T08:03:31.496Z,15.37
2022-11-12T08:06:16.271Z,15.73
2022-11-12T08:09:01.843Z,15.95
2022-11-12T08:11:46.885Z,18.23
2022-11-12T08:14:31.947Z,13.23
2022-11-12T08:17:16.880Z,13.07
2022-11-12T08:20:01.839Z,13.73
2022-11-12T08:22:49.458Z,12.73
2022-11-12T08:25:35.036Z,13.77
2022-11-12T08:28:19.879Z,13.07
2022-11-12T08:31:05.883Z,12.50
2022-11-12T08:33:50.896Z,13.90
2022-11-12T08:36:35.884Z,11.23
2022-11-12T08:39:20.954Z,11.70
2022-11-12T08:42:06.251Z,13.65
2022-11-12T08:44:51.100Z,11.45
2022-11-12T08:47:36.642Z,10.00
2022-11-12T08:50:21.847Z,9.57
2022-11-12T08:53:07.847Z,8.90
2022-11-12T08:55:54.165Z,9.30
2022-11-12T08:58:39.505Z,9.82
2022-11-12T09:01:24.836Z,7.03
2022-11-12T09:04:10.158Z,7.13
2022-11-12T09:06:55.074Z,8.23
2022-11-12T09:09:40.808Z,9.00
2022-11-12T09:12:28.325Z,7.00
2022-11-12T09:18:20.337Z,7.35
2022-11-12T09:21:10.443Z,7.57
2022-11-12T09:23:55.938Z,6.93
2022-11-12T09:26:41.187Z,6.50
2022-11-12T09:29:26.450Z,6.25
2022-11-12T09:32:11.300Z,5.40
2022-11-12T09:34:56.175Z,5.57
2022-11-12T09:37:41.050Z,5.82
2022-11-12T09:40:46.359Z,6.53
2022-11-12T09:43:37.442Z,5.50
2022-11-12T09:46:34.888Z,7.63
2022-11-12T09:49:23.185Z,6.80
2022-11-12T09:52:16.841Z,6.28
2022-11-12T09:55:12.559Z,4.88
2022-11-12T09:57:57.725Z,4.35
2022-11-12T10:00:46.364Z,5.70
2022-11-12T10:03:38.852Z,6.25
2022-11-12T10:06:36.200Z,7.32
2022-11-12T10:09:27.648Z,6.22
2022-11-12T10:12:33.202Z,5.32
2022-11-12T10:15:56.658Z,6.05
2022-11-12T10:18:44.685Z,4.97
2022-11-12T10:21:52.933Z,4.40
2022-11-12T10:24:38.916Z,4.45
2022-11-12T10:27:27.260Z,4.78
2022-11-12T10:30:19.827Z,5.60
2022-11-12T10:33:04.788Z,6.85
2022-11-12T10:35:51.240Z,6.47
2022-11-12T10:38:37.050Z,4.72
2022-11-12T10:41:24.038Z,6.38
2022-11-12T10:44:13.723Z,4.97
2022-11-12T10:47:18.964Z,5.80
2022-11-12T10:50:36.507Z,4.72
2022-11-12T10:53:38.270Z,4.30
2022-11-12T10:56:25.321Z,4.00
2022-11-12T10:59:13.942Z,5.03
2022-11-12T11:02:00.089Z,7.40
2022-11-12T11:04:45.268Z,4.22
2022-11-12T11:07:30.446Z,6.45
2022-11-12T11:10:28.603Z,4.55
2022-11-12T11:13:26.398Z,5.20
2022-11-12T11:16:16.665Z,4.78
2022-11-12T11:19:05.583Z,4.40
2022-11-12T11:21:50.752Z,4.90
2022-11-12T11:24:54.475Z,5.53
2022-11-12T11:27:58.260Z,4.70
2022-11-12T11:30:57.111Z,7.13
2022-11-12T11:33:54.788Z,6.47
2022-11-12T11:36:50.082Z,5.90
2022-11-12T11:39:37.985Z,6.18
2022-11-12T11:42:25.978Z,4.53
2022-11-12T11:45:29.261Z,4.70
2022-11-12T11:48:22.475Z,4.60
2022-11-12T11:51:24.843Z,6.93
2022-11-12T11:54:30.097Z,4.88
2022-11-12T11:57:23.523Z,6.97
2022-11-12T12:00:08.706Z,5.40
2022-11-12T12:03:12.788Z,4.40
2022-11-12T12:06:13.695Z,5.13
2022-11-12T12:09:16.723Z,5.78
2022-11-12T12:12:10.047Z,4.47
2022-11-12T12:14:54.995Z,5.63
2022-11-12T12:17:49.177Z,5.85
2022-11-12T12:20:54.148Z,5.07
2022-11-12T12:23:58.197Z,3.95
2022-11-12T12:27:09.511Z,4.45
2022-11-12T12:30:00.714Z,5.25
2022-11-12T12:32:50.232Z,4.53
2022-11-12T12:35:50.600Z,4.30
2022-11-12T12:38:38.572Z,6.82
2022-11-12T12:41:27.846Z,3.15
2022-11-12T12:44:12.882Z,5.35
2022-11-12T12:46:58.958Z,4.63
2022-11-12T12:49:45.016Z,7.05
2022-11-12T12:52:30.135Z,4.63
2022-11-12T12:55:34.790Z,5.35
2022-11-12T12:58:30.536Z,4.22
2022-11-12T13:01:25.018Z,3.67
2022-11-12T13:04:10.386Z,5.18
2022-11-12T13:06:55.425Z,3.20
2022-11-12T13:09:40.618Z,3.92
2022-11-12T13:12:45.653Z,4.13
2022-11-12T13:15:44.524Z,4.63
2022-11-12T13:18:38.873Z,4.78
2022-11-12T13:21:24.002Z,4.18
2022-11-12T13:24:12.770Z,3.95
2022-11-12T13:27:01.044Z,4.18
2022-11-12T13:29:47.092Z,4.00
2022-11-12T13:32:41.991Z,5.43
2022-11-12T13:35:27.442Z,3.67
2022-11-12T13:38:15.836Z,5.18
2022-11-12T13:41:03.719Z,4.63
2022-11-12T13:43:49.826Z,3.45
2022-11-12T13:46:34.690Z,3.00
2022-11-12T13:49:20.177Z,4.63
2022-11-12T13:52:05.741Z,3.28
2022-11-12T13:55:04.281Z,4.53
2022-11-12T13:57:55.895Z,4.28
2022-11-12T14:00:41.162Z,6.32
2022-11-12T14:03:28.892Z,4.50
2022-11-12T14:06:19.488Z,5.07
2022-11-12T14:09:04.663Z,4.90
2022-11-12T14:11:49.603Z,3.22
2022-11-12T14:15:07.289Z,3.72
2022-11-12T14:17:57.125Z,3.97
2022-11-12T14:20:42.402Z,4.63
2022-11-12T14:23:27.368Z,4.40
2022-11-12T14:26:13.478Z,4.22
2022-11-12T14:28:58.415Z,3.58
2022-11-12T14:31:43.377Z,3.55
2022-11-12T14:34:29.449Z,3.67
2022-11-12T14:37:41.736Z,3.65
2022-11-12T14:40:29.849Z,5.50
2022-11-12T14:43:26.164Z,3.53
2022-11-12T14:46:21.666Z,4.35
2022-11-12T14:49:15.928Z,3.55
2022-11-12T14:52:10.237Z,3.42
2022-11-12T14:55:00.555Z,3.72
2022-11-12T14:57:45.901Z,4.00
2022-11-12T15:00:31.884Z,9.60
2022-11-12T15:03:22.888Z,4.60
2022-11-12T15:06:09.763Z,3.97
2022-11-12T15:09:00.322Z,3.60
2022-11-12T15:11:47.382Z,6.43
2022-11-12T15:14:33.672Z,3.50
2022-11-12T15:17:37.056Z,3.45
2022-11-12T15:20:21.978Z,3.95
2022-11-12T15:23:14.432Z,3.55
2022-11-12T15:26:00.120Z,2.83
2022-11-12T15:29:08.365Z,3.28
2022-11-12T15:31:55.370Z,3.72
2022-11-12T15:34:40.496Z,3.15
2022-11-12T15:37:27.282Z,7.20
2022-11-12T15:40:16.341Z,3.13
2022-11-12T15:43:02.151Z,4.85
2022-11-12T15:45:48.381Z,7.43
2022-11-12T15:48:33.195Z,5.53
2022-11-12T15:51:18.064Z,3.15
2022-11-12T15:54:02.990Z,3.17
2022-11-12T15:56:48.107Z,4.47
2022-11-12T15:59:34.187Z,4.13
2022-11-12T16:02:19.159Z,2.88
2022-11-12T16:05:04.103Z,4.30
2022-11-12T16:07:49.023Z,3.10
2022-11-12T16:10:34.839Z,3.22
2022-11-12T16:13:27.448Z,3.55
2022-11-12T16:16:12.656Z,3.17
2022-11-12T16:18:57.686Z,3.58
2022-11-12T16:21:42.817Z,3.40
2022-11-12T16:24:27.897Z,4.68
2022-11-12T16:27:13.963Z,5.28
2022-11-12T16:29:58.919Z,3.85
2022-11-12T16:32:44.558Z,3.80
2022-11-12T16:35:31.950Z,3.33
2022-11-12T16:38:17.650Z,3.08
2022-11-12T16:41:02.738Z,3.38
2022-11-12T16:43:47.574Z,3.97
2022-11-12T16:46:35.667Z,4.53
2022-11-12T16:49:21.506Z,4.13
2022-11-12T16:52:08.730Z,4.80
2022-11-12T16:54:53.498Z,4.03
2022-11-12T16:57:38.495Z,4.07
2022-11-12T17:00:23.705Z,3.70
2022-11-12T17:03:11.519Z,4.80
2022-11-12T17:05:56.299Z,4.20
2022-11-12T17:08:40.962Z,4.97
2022-11-12T17:11:25.867Z,6.03
2022-11-12T17:14:11.285Z,4.15
2022-11-12T17:16:56.424Z,5.35
2022-11-12T17:19:41.457Z,4.35
2022-11-12T17:22:26.565Z,4.40
2022-11-12T17:25:11.511Z,5.22
2022-11-12T17:27:56.325Z,5.57
2022-11-12T17:30:41.339Z,6.05
2022-11-12T17:33:26.212Z,5.35
2022-11-12T17:36:12.872Z,4.93
2022-11-12T17:38:58.959Z,5.15
2022-11-12T17:41:43.970Z,4.20
2022-11-12T17:44:28.922Z,3.47
2022-11-12T17:47:14.043Z,4.38
2022-11-12T17:49:58.959Z,6.38
2022-11-12T17:52:43.880Z,4.95
2022-11-12T17:55:28.727Z,3.80
2022-11-12T17:58:13.743Z,4.45
2022-11-12T18:01:05.582Z,4.55
2022-11-12T18:03:52.863Z,5.25
2022-11-12T18:06:37.780Z,4.78
2022-11-12T18:09:23.179Z,4.00
2022-11-12T18:12:08.074Z,5.97
2022-11-12T18:14:52.942Z,4.35
2022-11-12T18:17:37.832Z,4.57
2022-11-12T18:20:23.300Z,5.30
2022-11-12T18:23:08.779Z,5.80
2022-11-12T18:25:53.996Z,4.80
2022-11-12T18:28:38.923Z,5.03
2022-11-12T18:31:24.834Z,9.32
2022-11-12T18:34:16.047Z,8.15
2022-11-12T18:37:01.013Z,5.40
2022-11-12T18:39:45.845Z,5.95
2022-11-12T18:42:30.906Z,6.43
2022-11-12T18:45:15.621Z,5.50
2022-11-12T18:48:00.713Z,5.45
2022-11-12T18:50:45.617Z,5.10
2022-11-12T18:53:30.857Z,6.15
2022-11-12T18:56:17.802Z,5.18
2022-11-12T18:59:02.978Z,6.00
2022-11-12T19:01:47.899Z,6.38
2022-11-12T19:04:33.029Z,5.90
2022-11-12T19:07:18.412Z,6.15
2022-11-12T19:10:14.643Z,7.22
2022-11-12T19:13:03.834Z,7.35
2022-11-12T19:15:48.889Z,7.75
2022-11-12T19:18:34.261Z,6.90
2022-11-12T19:21:20.467Z,8.50
2022-11-12T19:24:05.842Z,9.35
2022-11-12T19:26:51.503Z,8.13
2022-11-12T19:29:36.475Z,8.63
2022-11-12T19:32:21.738Z,9.70
2022-11-12T19:35:06.978Z,10.20
2022-11-12T19:37:52.146Z,8.32
2022-11-12T19:40:37.327Z,7.53
2022-11-12T19:43:24.486Z,7.80
2022-11-12T19:46:10.031Z,7.30
2022-11-12T19:48:55.174Z,10.23
2022-11-12T19:51:40.244Z,7.07
2022-11-12T19:54:25.242Z,8.68
2022-11-12T19:57:10.066Z,8.40
2022-11-12T19:59:55.078Z,7.10
2022-11-12T20:02:39.897Z,7.28
2022-11-12T20:05:24.838Z,8.43
2022-11-12T20:08:10.337Z,8.27
2022-11-12T20:10:55.547Z,8.57
2022-11-12T20:13:40.681Z,11.43
2022-11-12T20:16:25.975Z,7.25
2022-11-12T20:19:11.409Z,7.90
2022-11-12T20:21:56.761Z,9.68
2022-11-12T20:24:41.976Z,8.38
2022-11-12T20:27:27.303Z,6.55
2022-11-12T20:30:12.631Z,7.75
2022-11-12T20:32:57.507Z,7.82
2022-11-12T20:35:42.485Z,7.57
2022-11-12T20:38:28.386Z,8.38
2022-11-12T20:41:21.431Z,9.15
2022-11-12T20:44:06.806Z,7.43
2022-11-12T20:46:52.034Z,8.95
2022-11-12T20:49:37.276Z,7.88
2022-11-12T20:52:22.266Z,7.72
2022-11-12T20:55:07.740Z,7.70
2022-11-12T20:57:52.875Z,7.90
2022-11-12T21:00:38.859Z,8.10
2022-11-12T21:03:24.120Z,9.43
2022-11-12T21:06:10.199Z,11.98
2022-11-12T21:08:57.227Z,8.52
2022-11-12T21:11:42.378Z,9.82
2022-11-12T21:14:27.143Z,7.03
2022-11-12T21:17:12.102Z,9.82
2022-11-12T21:19:57.091Z,8.77
2022-11-12T21:22:42.431Z,12.48
2022-11-12T21:25:27.246Z,9.27
2022-11-12T21:28:12.154Z,9.43
2022-11-12T21:31:07.475Z,9.52
2022-11-12T21:33:53.913Z,10.02
2022-11-12T21:36:38.999Z,11.13
2022-11-12T21:39:23.977Z,10.48
2022-11-12T21:42:08.864Z,10.45
2022-11-12T21:44:53.960Z,13.70
2022-11-12T21:47:39.083Z,10.75
2022-11-12T21:50:23.877Z,10.65
2022-11-12T21:53:08.853Z,12.23
2022-11-12T21:55:53.663Z,11.35
2022-11-12T21:58:39.289Z,12.05
2022-11-12T22:01:25.234Z,12.30
2022-11-12T22:04:14.213Z,12.40
2022-11-12T22:07:03.985Z,12.57
2022-11-12T22:09:53.812Z,12.65
2022-11-12T22:12:58.586Z,12.32
2022-11-12T22:15:46.861Z,13.00
2022-11-12T22:18:34.304Z,12.88
2022-11-12T22:21:22.460Z,14.02
2022-11-12T22:24:08.815Z,11.75
2022-11-12T22:26:55.349Z,12.43
2022-11-12T22:29:40.142Z,12.95
2022-11-12T22:32:25.145Z,12.57
2022-11-12T22:35:10.208Z,12.27
2022-11-12T22:37:55.412Z,12.30
2022-11-12T22:40:40.232Z,11.98
2022-11-12T22:43:25.251Z,11.52
2022-11-12T22:46:11.333Z,11.73
2022-11-12T22:48:57.052Z,11.77
2022-11-12T22:51:42.183Z,15.65
2022-11-12T22:54:26.971Z,14.38
2022-11-12T22:57:11.896Z,13.18
2022-11-12T22:59:58.510Z,13.75
2022-11-12T23:02:47.554Z,12.68
2022-11-12T23:05:32.741Z,12.88
2022-11-12T23:08:17.575Z,11.68
2022-11-12T23:11:04.266Z,13.57
2022-11-12T23:13:49.497Z,11.32
2022-11-12T23:16:35.285Z,12.05
2022-11-12T23:19:20.463Z,11.52
2022-11-12T23:22:08.021Z,13.57
2022-11-12T23:24:53.077Z,17.52
2022-11-12T23:27:37.996Z,13.60
2022-11-12T23:30:22.822Z,15.10
2022-11-12T23:33:08.633Z,15.27
2022-11-12T23:35:53.723Z,17.63
2022-11-12T23:38:40.150Z,16.17
2022-11-12T23:41:26.233Z,18.42
2022-11-12T23:44:11.196Z,14.45
2022-11-12T23:46:56.499Z,15.35
2022-11-12T23:49:41.303Z,13.77
2022-11-12T23:52:26.251Z,14.07
2022-11-12T23:55:11.131Z,15.15
2022-11-12T23:57:55.936Z,12.95
